createdAt,value
2023-04-07T00:00:49.798Z,101134.50
2023-04-07T00:03:16.965Z,101142.88
2023-04-07T00:05:43.942Z,101147.75
2023-04-07T00:08:10.679Z,101154.44
2023-04-07T00:10:38.677Z,101147.44
2023-04-07T00:13:05.562Z,101141.19
2023-04-07T00:15:32.419Z,101150.88
2023-04-07T00:17:59.526Z,101150.50
2023-04-07T00:20:26.457Z,101143.31
2023-04-07T00:22:53.188Z,101139.97
2023-04-07T00:25:19.926Z,101134.59
2023-04-07T00:27:46.802Z,101141.13
2023-04-07T00:30:15.359Z,101138.22
2023-04-07T00:32:42.372Z,101144.94
2023-04-07T00:35:12.265Z,101137.75
2023-04-07T00:37:39.192Z,101141.75
2023-04-07T00:40:06.724Z,101132.66
2023-04-07T00:42:33.762Z,101148.97
2023-04-07T00:45:00.832Z,101145.63
2023-04-07T00:47:27.695Z,101148.50
2023-04-07T00:49:54.559Z,101145.94
2023-04-07T00:52:27.487Z,101139.56
2023-04-07T00:54:57.900Z,101150.09
2023-04-07T00:57:25.823Z,101141.31
2023-04-07T00:59:53.123Z,101150.13
2023-04-07T01:02:50.966Z,101146.09
2023-04-07T01:05:25.566Z,101145.31
2023-04-07T01:08:05.064Z,101148.50
2023-04-07T01:10:53.056Z,101148.03
2023-04-07T01:13:33.608Z,101139.66
2023-04-07T01:16:53.933Z,101143.53
2023-04-07T01:19:36.991Z,101143.69
2023-04-07T01:22:14.419Z,101137.31
2023-04-07T01:25:04.764Z,101148.66
2023-04-07T01:27:38.693Z,101142.06
2023-04-07T01:30:08.256Z,101141.47
2023-04-07T01:32:37.305Z,101145.41
2023-04-07T01:35:06.315Z,101142.38
2023-04-07T01:37:33.729Z,101138.06
2023-04-07T01:40:00.501Z,101149.09
2023-04-07T01:42:27.786Z,101147.69
2023-04-07T01:44:55.029Z,101141.75
2023-04-07T01:47:22.026Z,101142.31
2023-04-07T01:49:50.048Z,101135.69
2023-04-07T01:52:17.179Z,101138.16
2023-04-07T01:54:44.052Z,101144.72
2023-04-07T01:57:10.962Z,101146.47
2023-04-07T01:59:37.909Z,101152.13
2023-04-07T02:02:05.158Z,101156.63
2023-04-07T02:04:38.920Z,101154.34
2023-04-07T02:07:10.131Z,101155.16
2023-04-07T02:09:43.516Z,101146.97
2023-04-07T02:12:13.413Z,101151.50
2023-04-07T02:14:46.492Z,101157.06
2023-04-07T02:17:16.601Z,101149.22
2023-04-07T02:19:44.319Z,101158.00
2023-04-07T02:22:11.508Z,101153.72
2023-04-07T02:24:42.779Z,101169.13
2023-04-07T02:27:09.693Z,101165.53
2023-04-07T02:29:36.517Z,101162.88
2023-04-07T02:32:03.529Z,101167.78
2023-04-07T02:34:30.564Z,101164.06
2023-04-07T02:36:57.522Z,101172.69
2023-04-07T02:39:24.452Z,101176.47
2023-04-07T02:41:51.165Z,101164.19
2023-04-07T02:44:17.883Z,101166.72
2023-04-07T02:46:44.635Z,101164.50
2023-04-07T02:49:11.641Z,101166.03
2023-04-07T02:51:39.063Z,101174.81
2023-04-07T02:54:06.283Z,101171.91
2023-04-07T02:56:33.385Z,101174.22
2023-04-07T02:59:00.325Z,101172.41
2023-04-07T03:01:28.199Z,101176.56
2023-04-07T03:03:55.692Z,101178.31
2023-04-07T03:06:24.908Z,101183.16
2023-04-07T03:09:14.254Z,101177.59
2023-04-07T03:11:41.944Z,101177.69
2023-04-07T03:14:09.339Z,101184.69
2023-04-07T03:16:43.189Z,101187.53
2023-04-07T03:19:12.939Z,101184.00
2023-04-07T03:21:46.700Z,101180.84
2023-04-07T03:24:13.522Z,101183.13
2023-04-07T03:26:40.662Z,101184.34
2023-04-07T03:29:16.842Z,101181.09
2023-04-07T03:31:43.914Z,101184.34
2023-04-07T03:34:13.376Z,101185.19
2023-04-07T03:36:40.172Z,101169.50
2023-04-07T03:39:06.997Z,101179.06
2023-04-07T03:41:33.789Z,101188.13
2023-04-07T03:44:00.589Z,101177.31
2023-04-07T03:46:28.261Z,101176.22
2023-04-07T03:48:55.231Z,101180.16
2023-04-07T03:51:22.558Z,101179.44
2023-04-07T03:53:54.205Z,101183.38
2023-04-07T03:56:50.831Z,101184.50
2023-04-07T03:59:22.195Z,101190.16
2023-04-07T04:02:02.404Z,101186.09
2023-04-07T04:04:29.455Z,101190.69
2023-04-07T04:06:56.360Z,101179.34
2023-04-07T04:09:37.683Z,101191.09
2023-04-07T04:12:04.812Z,101193.88
2023-04-07T04:14:33.805Z,101185.81
2023-04-07T04:17:05.418Z,101193.53
2023-04-07T04:19:37.905Z,101195.31
2023-04-07T04:22:13.707Z,101197.16
2023-04-07T04:24:48.794Z,101206.03
2023-04-07T04:27:16.024Z,101201.88
2023-04-07T04:29:46.270Z,101197.28
2023-04-07T04:32:15.454Z,101204.34
2023-04-07T04:34:44.449Z,101214.66
2023-04-07T04:37:12.957Z,101208.97
2023-04-07T04:39:43.146Z,101208.66
2023-04-07T04:42:12.480Z,101214.44
2023-04-07T04:44:39.573Z,101203.75
2023-04-07T04:47:07.785Z,101211.38
2023-04-07T04:49:36.374Z,101210.97
2023-04-07T04:52:04.852Z,101212.81
2023-04-07T04:54:38.154Z,101218.66
2023-04-07T04:57:05.501Z,101206.91
2023-04-07T04:59:34.173Z,101211.94
2023-04-07T05:02:03.524Z,101222.56
2023-04-07T05:04:30.710Z,101217.44
2023-04-07T05:07:06.033Z,101224.75
2023-04-07T05:09:32.751Z,101222.34
2023-04-07T05:11:59.908Z,101226.38
2023-04-07T05:14:30.834Z,101216.91
2023-04-07T05:17:04.657Z,101227.41
2023-04-07T05:19:31.608Z,101230.97
2023-04-07T05:22:04.676Z,101229.63
2023-04-07T05:24:39.526Z,101238.94
2023-04-07T05:27:06.411Z,101245.28
2023-04-07T05:29:34.086Z,101250.81
2023-04-07T05:32:03.311Z,101247.31
2023-04-07T05:34:31.490Z,101247.38
2023-04-07T05:36:58.749Z,101249.97
2023-04-07T05:39:26.079Z,101247.16
2023-04-07T05:41:56.660Z,101250.31
2023-04-07T05:44:26.337Z,101258.78
2023-04-07T05:46:53.453Z,101262.63
2023-04-07T05:49:22.220Z,101258.91
2023-04-07T05:51:59.066Z,101269.31
2023-04-07T05:54:26.562Z,101262.00
2023-04-07T05:56:53.628Z,101261.84
2023-04-07T05:59:21.846Z,101266.50
2023-04-07T06:01:50.932Z,101267.19
2023-04-07T06:04:18.462Z,101269.47
2023-04-07T06:06:47.866Z,101267.41
2023-04-07T06:09:14.726Z,101279.94
2023-04-07T06:11:41.862Z,101283.75
2023-04-07T06:14:18.511Z,101281.91
2023-04-07T06:16:46.043Z,101289.25
2023-04-07T06:19:12.907Z,101285.16
2023-04-07T06:42:47.336Z,101293.84
2023-04-07T06:46:00.451Z,101308.94
2023-04-07T06:51:56.846Z,101308.94
2023-04-07T06:54:23.741Z,101310.03
2023-04-07T06:56:53.477Z,101304.25
2023-04-07T06:59:24.138Z,101306.25
2023-04-07T07:01:51.642Z,101307.88
2023-04-07T07:04:18.620Z,101316.50
2023-04-07T07:06:45.862Z,101319.41
2023-04-07T07:09:13.442Z,101332.19
2023-04-07T07:11:48.865Z,101334.13
2023-04-07T07:14:22.342Z,101329.69
2023-04-07T07:16:59.344Z,101333.78
2023-04-07T07:19:36.301Z,101319.34
2023-04-07T07:22:10.426Z,101343.25
2023-04-07T07:24:41.346Z,101327.19
2023-04-07T07:27:10.180Z,101344.94
2023-04-07T07:29:39.326Z,101334.75
2023-04-07T07:32:08.014Z,101325.09
2023-04-07T07:34:38.962Z,101342.94
2023-04-07T07:37:08.323Z,101342.69
2023-04-07T07:39:42.434Z,101331.16
2023-04-07T07:48:37.717Z,101366.22
2023-04-07T07:51:29.097Z,101352.63
2023-04-07T07:56:43.859Z,101372.44
2023-04-07T08:05:28.994Z,101388.13
2023-04-07T08:08:04.255Z,101393.97
2023-04-07T08:24:26.301Z,101407.25
2023-04-07T08:27:02.904Z,101401.19
2023-04-07T08:29:32.908Z,101412.44
2023-04-07T08:34:50.211Z,101398.97
2023-04-07T08:37:18.477Z,101409.94
2023-04-07T08:39:47.000Z,101406.69
2023-04-07T08:42:14.327Z,101407.88
2023-04-07T08:51:39.751Z,101421.53
2023-04-07T08:54:29.913Z,101402.06
2023-04-07T08:57:26.749Z,101402.34
2023-04-07T09:04:10.359Z,101423.81
2023-04-07T09:07:06.977Z,101412.72
2023-04-07T09:09:34.541Z,101405.47
2023-04-07T09:12:02.121Z,101423.91
2023-04-07T09:14:29.151Z,101415.53
2023-04-07T09:16:57.179Z,101421.22
2023-04-07T09:20:23.565Z,101429.34
2023-04-07T09:22:57.099Z,101418.16
2023-04-07T09:25:29.674Z,101433.22
2023-04-07T09:28:42.952Z,101413.53
2023-04-07T09:34:48.800Z,101408.06
2023-04-07T09:40:34.750Z,101421.41
2023-04-07T09:43:03.792Z,101416.34
2023-04-07T09:45:41.758Z,101397.13
2023-04-07T09:48:22.536Z,101406.34
2023-04-07T09:50:50.166Z,101409.06
2023-04-07T09:53:19.061Z,101418.81
2023-04-07T09:55:50.070Z,101426.97
2023-04-07T09:58:20.860Z,101415.75
2023-04-07T10:00:49.278Z,101415.16
2023-04-07T10:03:16.371Z,101418.31
2023-04-07T10:05:44.789Z,101419.06
2023-04-07T10:08:11.617Z,101423.28
2023-04-07T10:10:43.528Z,101419.44
2023-04-07T10:13:10.908Z,101429.84
2023-04-07T10:15:57.389Z,101416.72
2023-04-07T10:18:32.999Z,101426.66
2023-04-07T10:21:05.326Z,101430.97
2023-04-07T10:23:50.035Z,101416.72
2023-04-07T10:26:19.398Z,101421.38
2023-04-07T10:28:50.547Z,101430.03
2023-04-07T10:31:18.335Z,101410.81
2023-04-07T10:33:53.645Z,101426.66
2023-04-07T10:36:25.059Z,101417.53
2023-04-07T10:39:11.398Z,101430.69
2023-04-07T10:41:39.808Z,101430.66
2023-04-07T10:44:10.134Z,101440.75
2023-04-07T10:46:56.222Z,101440.91
2023-04-07T10:49:26.702Z,101432.94
2023-04-07T10:52:17.669Z,101440.94
2023-04-07T10:54:44.623Z,101437.88
2023-04-07T10:57:50.927Z,101441.66
2023-04-07T11:00:19.631Z,101438.50
2023-04-07T11:02:48.743Z,101437.53
2023-04-07T11:05:23.960Z,101437.81
2023-04-07T11:07:55.654Z,101438.66
2023-04-07T11:10:23.931Z,101443.75
2023-04-07T11:13:06.970Z,101452.28
2023-04-07T11:15:38.546Z,101433.47
2023-04-07T11:18:18.867Z,101443.94
2023-04-07T11:20:55.241Z,101451.97
2023-04-07T11:23:26.391Z,101454.38
2023-04-07T11:26:01.428Z,101437.22
2023-04-07T11:28:37.392Z,101450.84
2023-04-07T11:31:05.291Z,101470.88
2023-04-07T11:33:44.046Z,101440.75
2023-04-07T11:36:12.903Z,101443.47
2023-04-07T11:38:40.348Z,101444.13
2023-04-07T11:41:15.974Z,101459.03
2023-04-07T11:43:43.550Z,101452.78
2023-04-07T11:46:12.189Z,101468.47
2023-04-07T11:48:41.373Z,101464.28
2023-04-07T11:51:19.301Z,101469.25
2023-04-07T11:53:47.553Z,101465.75
2023-04-07T11:56:17.280Z,101463.50
2023-04-07T11:58:55.289Z,101469.25
2023-04-07T12:01:24.861Z,101479.22
2023-04-07T12:04:03.740Z,101460.16
2023-04-07T12:06:38.466Z,101461.88
2023-04-07T12:09:06.278Z,101466.88
2023-04-07T12:11:34.585Z,101483.69
2023-04-07T12:14:05.338Z,101481.47
2023-04-07T12:16:33.284Z,101478.88
2023-04-07T12:19:00.233Z,101491.97
2023-04-07T12:21:27.692Z,101489.69
2023-04-07T12:23:57.824Z,101494.56
2023-04-07T12:26:25.816Z,101496.84
2023-04-07T12:28:52.884Z,101499.41
2023-04-07T12:31:19.906Z,101498.44
2023-04-07T12:33:48.783Z,101494.78
2023-04-07T12:36:16.311Z,101512.22
2023-04-07T12:41:26.465Z,101503.91
2023-04-07T12:43:53.800Z,101510.53
2023-04-07T12:46:22.102Z,101508.28
2023-04-07T12:48:49.466Z,101510.66
2023-04-07T12:51:16.789Z,101521.34
2023-04-07T12:53:47.526Z,101508.69
2023-04-07T12:56:14.871Z,101517.34
2023-04-07T13:02:18.417Z,101515.91
2023-04-07T13:04:47.441Z,101499.88
2023-04-07T13:07:14.942Z,101498.44
2023-04-07T13:09:43.795Z,101493.63
2023-04-07T13:12:12.812Z,101494.13
2023-04-07T13:14:52.904Z,101502.63
2023-04-07T13:17:27.490Z,101508.31
2023-04-07T13:19:55.016Z,101494.06
2023-04-07T13:22:24.337Z,101508.19
2023-04-07T13:24:51.861Z,101504.69
2023-04-07T13:27:18.855Z,101497.34
2023-04-07T13:29:46.213Z,101507.22
2023-04-07T13:32:13.332Z,101508.41
2023-04-07T13:34:40.709Z,101515.09
2023-04-07T13:37:07.732Z,101509.94
2023-04-07T13:39:34.879Z,101520.06
2023-04-07T13:42:02.321Z,101514.13
2023-04-07T13:44:39.490Z,101510.44
2023-04-07T13:47:06.705Z,101528.19
2023-04-07T13:49:33.738Z,101519.22
2023-04-07T13:52:00.760Z,101523.25
2023-04-07T13:54:27.721Z,101527.84
2023-04-07T13:56:54.728Z,101529.03
2023-04-07T13:59:21.742Z,101522.13
2023-04-07T14:01:48.796Z,101517.34
2023-04-07T14:04:15.790Z,101518.94
2023-04-07T14:06:43.153Z,101530.66
2023-04-07T14:09:10.115Z,101527.13
2023-04-07T14:11:37.032Z,101525.47
2023-04-07T14:14:04.269Z,101532.03
2023-04-07T14:16:31.344Z,101527.72
2023-04-07T14:19:04.770Z,101522.94
2023-04-07T14:21:32.213Z,101528.72
2023-04-07T14:23:59.886Z,101534.00
2023-04-07T14:30:00.561Z,101531.91
2023-04-07T14:32:29.845Z,101513.34
2023-04-07T14:35:02.424Z,101531.94
2023-04-07T14:37:30.798Z,101539.00
2023-04-07T14:42:29.981Z,101535.19
2023-04-07T14:44:57.177Z,101530.94
2023-04-07T14:47:24.210Z,101535.25
2023-04-07T14:49:53.639Z,101533.66
2023-04-07T14:52:22.559Z,101535.78
2023-04-07T14:54:49.390Z,101542.31
2023-04-07T14:57:17.209Z,101541.94
2023-04-07T14:59:44.322Z,101542.72
2023-04-07T15:02:17.233Z,101542.19
2023-04-07T15:04:44.505Z,101544.44
2023-04-07T15:07:11.496Z,101551.34
2023-04-07T15:09:39.046Z,101546.22
2023-04-07T15:12:06.055Z,101549.91
2023-04-07T15:14:32.910Z,101548.94
2023-04-07T15:17:00.505Z,101556.28
2023-04-07T15:19:27.893Z,101551.47
2023-04-07T15:21:54.656Z,101548.28
2023-04-07T15:24:22.821Z,101560.75
2023-04-07T15:26:50.269Z,101560.47
2023-04-07T15:29:17.254Z,101563.84
2023-04-07T15:31:44.304Z,101562.94
2023-04-07T15:34:12.820Z,101568.75
2023-04-07T15:36:40.376Z,101565.84
2023-04-07T15:39:07.364Z,101560.06
2023-04-07T15:41:34.437Z,101567.63
2023-04-07T15:44:01.859Z,101561.25
2023-04-07T15:46:28.680Z,101566.72
2023-04-07T15:48:55.719Z,101569.31
2023-04-07T15:51:22.944Z,101573.56
2023-04-07T15:53:50.253Z,101570.03
2023-04-07T15:56:17.243Z,101575.63
2023-04-07T15:58:45.911Z,101579.53
2023-04-07T16:01:12.822Z,101580.00
2023-04-07T16:03:40.209Z,101583.38
2023-04-07T16:06:07.232Z,101585.59
2023-04-07T16:08:34.071Z,101587.81
2023-04-07T16:11:00.935Z,101589.44
2023-04-07T16:13:27.972Z,101599.31
2023-04-07T16:15:58.346Z,101597.25
2023-04-07T16:18:28.631Z,101595.66
2023-04-07T16:20:55.786Z,101592.16
2023-04-07T16:23:22.865Z,101603.53
2023-04-07T16:25:49.770Z,101596.91
2023-04-07T16:28:17.227Z,101604.69
2023-04-07T16:30:46.566Z,101600.41
2023-04-07T16:33:13.717Z,101605.72
2023-04-07T16:35:40.649Z,101608.25
2023-04-07T16:38:07.439Z,101609.25
2023-04-07T16:40:34.390Z,101604.84
2023-04-07T16:43:01.415Z,101615.06
2023-04-07T16:45:28.708Z,101619.09
2023-04-07T16:47:55.787Z,101613.19
2023-04-07T16:50:22.992Z,101628.25
2023-04-07T16:52:49.895Z,101621.38
2023-04-07T16:55:16.737Z,101629.56
2023-04-07T16:57:43.475Z,101630.41
2023-04-07T17:00:10.800Z,101634.88
2023-04-07T17:02:37.648Z,101633.63
2023-04-07T17:05:05.217Z,101636.22
2023-04-07T17:07:31.988Z,101635.63
2023-04-07T17:09:59.027Z,101644.69
2023-04-07T17:12:26.732Z,101657.47
2023-04-07T17:14:53.631Z,101645.22
2023-04-07T17:17:20.856Z,101647.06
2023-04-07T17:19:47.763Z,101655.94
2023-04-07T17:22:14.770Z,101660.09
2023-04-07T17:24:41.717Z,101657.88
2023-04-07T17:27:08.580Z,101664.16
2023-04-07T17:29:35.571Z,101665.72
2023-04-07T17:32:02.822Z,101666.25
2023-04-07T17:34:29.811Z,101667.63
2023-04-07T17:36:56.574Z,101679.25
2023-04-07T17:39:23.489Z,101673.72
2023-04-07T17:41:50.672Z,101690.28
2023-04-07T17:44:18.200Z,101689.66
2023-04-07T17:46:45.763Z,101689.75
2023-04-07T17:49:12.733Z,101692.13
2023-04-07T17:51:39.591Z,101694.63
2023-04-07T17:54:06.991Z,101692.97
2023-04-07T17:56:33.888Z,101702.34
2023-04-07T17:59:01.308Z,101705.50
2023-04-07T18:01:28.165Z,101700.91
2023-04-07T18:03:55.224Z,101703.88
2023-04-07T18:06:23.590Z,101709.47
2023-04-07T18:08:50.589Z,101707.25
2023-04-07T18:11:18.801Z,101714.91
2023-04-07T18:13:46.294Z,101711.00
2023-04-07T18:16:22.020Z,101710.94
2023-04-07T18:18:49.557Z,101716.75
2023-04-07T18:21:16.261Z,101717.69
2023-04-07T18:23:43.089Z,101726.50
2023-04-07T18:26:09.912Z,101724.56
2023-04-07T18:28:37.054Z,101720.84
2023-04-07T18:31:07.115Z,101717.78
2023-04-07T18:33:34.638Z,101725.06
2023-04-07T18:36:07.373Z,101738.72
2023-04-07T18:38:36.430Z,101731.22
2023-04-07T18:41:03.886Z,101733.31
2023-04-07T18:43:31.378Z,101731.88
2023-04-07T18:45:58.398Z,101741.56
2023-04-07T18:48:26.178Z,101741.53
2023-04-07T18:50:53.904Z,101751.03
2023-04-07T18:53:21.681Z,101749.72
2023-04-07T18:55:49.354Z,101754.94
2023-04-07T18:58:16.371Z,101761.91
2023-04-07T19:00:44.507Z,101761.44
2023-04-07T19:03:12.037Z,101760.44
2023-04-07T19:05:42.453Z,101769.41
2023-04-07T19:08:09.828Z,101774.69
2023-04-07T19:10:36.856Z,101774.59
2023-04-07T19:13:04.288Z,101779.53
2023-04-07T19:15:36.581Z,101778.50
2023-04-07T19:18:07.994Z,101783.19
2023-04-07T19:20:35.613Z,101777.91
2023-04-07T19:23:02.856Z,101782.06
2023-04-07T19:25:30.926Z,101782.31
2023-04-07T19:27:58.599Z,101778.28
2023-04-07T19:30:25.784Z,101778.75
2023-04-07T19:32:53.159Z,101786.47
2023-04-07T19:35:20.055Z,101778.47
2023-04-07T19:37:48.242Z,101786.81
2023-04-07T19:40:15.423Z,101779.19
2023-04-07T19:42:42.622Z,101788.19
2023-04-07T19:45:10.269Z,101787.81
2023-04-07T19:47:38.935Z,101790.66
2023-04-07T19:50:06.387Z,101782.00
2023-04-07T19:52:33.419Z,101796.38
2023-04-07T19:55:01.689Z,101796.78
2023-04-07T19:57:31.025Z,101798.84
2023-04-07T19:59:58.004Z,101802.38
2023-04-07T20:02:25.359Z,101812.28
2023-04-07T20:04:53.451Z,101811.34
2023-04-07T20:07:20.752Z,101814.78
2023-04-07T20:09:47.676Z,101810.53
2023-04-07T20:12:15.231Z,101805.50
2023-04-07T20:14:42.077Z,101809.50
2023-04-07T20:17:09.390Z,101804.72
2023-04-07T20:19:36.584Z,101823.03
2023-04-07T20:22:04.678Z,101819.78
2023-04-07T20:24:31.794Z,101817.50
2023-04-07T20:26:58.721Z,101822.03
2023-04-07T20:29:25.701Z,101823.59
2023-04-07T20:31:52.674Z,101819.63
2023-04-07T20:34:19.463Z,101830.97
2023-04-07T20:36:46.419Z,101827.06
2023-04-07T20:39:13.304Z,101829.41
2023-04-07T20:41:42.842Z,101834.81
2023-04-07T20:44:09.766Z,101825.25
2023-04-07T20:46:36.643Z,101827.13
2023-04-07T20:49:07.646Z,101828.84
2023-04-07T20:51:38.864Z,101830.25
2023-04-07T20:54:06.955Z,101822.00
2023-04-07T20:56:33.683Z,101827.88
2023-04-07T20:59:00.850Z,101829.06
2023-04-07T21:01:27.717Z,101838.03
2023-04-07T21:03:54.942Z,101843.44
2023-04-07T21:06:21.932Z,101836.72
2023-04-07T21:08:49.654Z,101841.50
2023-04-07T21:11:16.684Z,101843.72
2023-04-07T21:13:43.454Z,101842.66
2023-04-07T21:16:11.378Z,101850.94
2023-04-07T21:18:38.539Z,101848.41
2023-04-07T21:21:05.694Z,101855.03
2023-04-07T21:23:32.554Z,101844.34
2023-04-07T21:26:03.687Z,101856.22
2023-04-07T21:28:30.730Z,101849.56
2023-04-07T21:30:57.980Z,101846.78
2023-04-07T21:33:25.425Z,101856.88
2023-04-07T21:35:52.709Z,101858.16
2023-04-07T21:38:19.792Z,101857.06
2023-04-07T21:40:48.656Z,101860.06
2023-04-07T21:43:15.592Z,101850.72
2023-04-07T21:45:42.529Z,101851.84
2023-04-07T21:48:09.673Z,101856.38
2023-04-07T21:50:37.121Z,101860.00
2023-04-07T21:53:03.949Z,101857.38
2023-04-07T21:55:30.784Z,101860.59
2023-04-07T21:57:58.252Z,101863.47
2023-04-07T22:00:25.141Z,101856.63
2023-04-07T22:02:52.153Z,101857.84
2023-04-07T22:05:19.345Z,101852.31
2023-04-07T22:07:46.899Z,101848.38
2023-04-07T22:10:14.062Z,101845.34
2023-04-07T22:12:41.582Z,101859.19
2023-04-07T22:15:09.599Z,101870.88
2023-04-07T22:17:39.980Z,101857.41
2023-04-07T22:20:09.151Z,101866.03
2023-04-07T22:22:36.339Z,101858.59
2023-04-07T22:25:03.452Z,101865.75
2023-04-07T22:27:30.201Z,101859.72
2023-04-07T22:29:57.102Z,101862.22
2023-04-07T22:32:23.803Z,101863.25
2023-04-07T22:34:50.986Z,101866.28
2023-04-07T22:37:17.887Z,101869.88
2023-04-07T22:39:46.323Z,101866.13
2023-04-07T22:42:13.050Z,101863.31
2023-04-07T22:44:40.138Z,101862.94
2023-04-07T22:47:07.780Z,101865.84
2023-04-07T22:49:34.881Z,101865.72
2023-04-07T22:52:05.603Z,101865.34
2023-04-07T22:54:33.304Z,101858.53
2023-04-07T22:57:01.928Z,101862.75
2023-04-07T22:59:28.758Z,101861.72
2023-04-07T23:01:57.693Z,101860.59
2023-04-07T23:04:27.468Z,101865.06
2023-04-07T23:06:54.436Z,101866.56
2023-04-07T23:09:21.377Z,101865.75
2023-04-07T23:11:48.794Z,101873.38
2023-04-07T23:14:15.787Z,101869.06
2023-04-07T23:16:42.499Z,101868.06
2023-04-07T23:19:15.499Z,101864.84
2023-04-07T23:21:43.138Z,101870.78
2023-04-07T23:24:09.974Z,101873.09
2023-04-07T23:26:37.363Z,101872.22
2023-04-07T23:29:04.007Z,101876.34
2023-04-07T23:31:31.268Z,101874.84
2023-04-07T23:33:59.684Z,101878.25
2023-04-07T23:36:27.257Z,101885.50
2023-04-07T23:38:57.117Z,101884.00
2023-04-07T23:41:24.002Z,101884.69
2023-04-07T23:43:51.038Z,101888.91
2023-04-07T23:46:17.808Z,101870.38
2023-04-07T23:48:44.577Z,101891.53
2023-04-07T23:51:12.806Z,101886.41
2023-04-07T23:53:39.593Z,101890.31
2023-04-07T23:56:06.574Z,101892.75
2023-04-07T23:58:33.301Z,101894.97
